createdAt,value
2023-05-14T00:01:23.134Z,94.98
2023-05-14T00:03:51.724Z,94.79
2023-05-14T00:06:18.623Z,94.28
2023-05-14T00:08:45.549Z,94.50
2023-05-14T00:11:12.471Z,94.61
2023-05-14T00:14:03.929Z,94.58
2023-05-14T00:16:32.271Z,94.24
2023-05-14T00:18:59.107Z,94.23
2023-05-14T00:21:29.418Z,93.98
2023-05-14T00:23:57.989Z,93.64
2023-05-14T00:26:28.418Z,94.07
2023-05-14T00:28:56.338Z,93.57
2023-05-14T00:31:23.815Z,93.87
2023-05-14T00:33:54.492Z,93.48
2023-05-14T00:36:22.096Z,93.25
2023-05-14T00:38:49.390Z,93.49
2023-05-14T00:41:16.354Z,93.12
2023-05-14T00:43:43.195Z,93.12
2023-05-14T00:46:10.561Z,92.87
2023-05-14T00:48:37.470Z,92.64
2023-05-14T00:53:56.797Z,92.94
2023-05-14T00:56:23.896Z,92.88
2023-05-14T00:58:50.750Z,92.80
2023-05-14T01:01:18.097Z,92.42
2023-05-14T01:03:45.533Z,92.84
2023-05-14T01:06:19.013Z,92.83
2023-05-14T01:09:04.826Z,93.10
2023-05-14T01:11:50.756Z,92.66
2023-05-14T01:14:48.859Z,92.64
2023-05-14T01:17:18.092Z,92.40
2023-05-14T01:19:47.471Z,92.44
2023-05-14T01:22:14.986Z,92.55
2023-05-14T01:24:42.628Z,92.68
2023-05-14T01:27:37.456Z,92.62
2023-05-14T01:30:14.069Z,92.37
2023-05-14T01:32:45.451Z,92.68
2023-05-14T01:35:12.948Z,92.55
2023-05-14T01:37:42.225Z,92.87
2023-05-14T01:40:11.898Z,92.54
2023-05-14T01:42:39.656Z,92.76
2023-05-14T01:45:07.529Z,92.75
2023-05-14T01:47:34.459Z,92.55
2023-05-14T01:50:02.057Z,92.92
2023-05-14T01:52:28.808Z,92.95
2023-05-14T01:54:55.638Z,92.68
2023-05-14T01:57:22.530Z,92.21
2023-05-14T01:59:49.448Z,92.28
2023-05-14T02:02:17.013Z,92.31
2023-05-14T02:04:44.455Z,92.95
2023-05-14T02:07:12.158Z,92.31
2023-05-14T02:09:39.075Z,92.72
2023-05-14T02:12:31.076Z,92.38
2023-05-14T02:14:57.931Z,92.42
2023-05-14T02:17:26.695Z,92.50
2023-05-14T02:19:55.169Z,92.51
2023-05-14T02:22:22.001Z,92.06
2023-05-14T02:24:48.928Z,91.95
2023-05-14T02:32:59.123Z,92.07
2023-05-14T02:35:26.057Z,92.00
2023-05-14T02:37:55.077Z,92.22
2023-05-14T02:40:46.946Z,92.39
2023-05-14T02:43:14.030Z,91.69
2023-05-14T02:45:40.804Z,91.88
2023-05-14T02:48:07.997Z,92.12
2023-05-14T02:50:34.989Z,91.84
2023-05-14T02:53:05.817Z,91.99
2023-05-14T02:55:32.882Z,91.63
2023-05-14T02:58:00.180Z,91.40
2023-05-14T03:00:28.513Z,91.41
2023-05-14T03:02:55.973Z,91.48
2023-05-14T03:05:24.108Z,91.58
2023-05-14T03:07:53.967Z,91.87
2023-05-14T03:10:21.667Z,91.86
2023-05-14T03:12:49.089Z,92.12
2023-05-14T03:15:15.874Z,92.01
2023-05-14T03:17:42.831Z,92.15
2023-05-14T03:20:11.137Z,91.65
2023-05-14T03:22:38.698Z,91.91
2023-05-14T03:25:05.862Z,91.95
2023-05-14T03:27:36.780Z,92.24
2023-05-14T03:30:04.174Z,91.88
2023-05-14T03:32:31.128Z,91.78
2023-05-14T03:34:58.092Z,92.00
2023-05-14T03:37:28.623Z,92.20
2023-05-14T03:39:56.178Z,91.92
2023-05-14T03:42:25.256Z,92.10
2023-05-14T03:45:17.122Z,92.22
2023-05-14T03:47:44.078Z,91.74
2023-05-14T03:50:11.575Z,91.98
2023-05-14T03:52:39.332Z,92.01
2023-05-14T03:55:06.780Z,92.24
2023-05-14T03:57:59.063Z,91.76
2023-05-14T04:00:28.239Z,91.83
2023-05-14T04:02:55.179Z,92.33
2023-05-14T04:05:24.153Z,92.05
2023-05-14T04:07:51.755Z,92.13
2023-05-14T04:10:20.340Z,91.49
2023-05-14T04:12:47.195Z,92.34
2023-05-14T04:15:16.513Z,92.20
2023-05-14T04:17:43.440Z,92.35
2023-05-14T04:20:12.705Z,91.75
2023-05-14T04:22:43.051Z,92.03
2023-05-14T04:25:10.545Z,91.84
2023-05-14T04:27:38.216Z,91.94
2023-05-14T04:30:05.555Z,91.47
2023-05-14T04:32:32.521Z,91.69
2023-05-14T04:35:03.074Z,91.62
2023-05-14T04:37:30.066Z,92.03
2023-05-14T04:39:57.546Z,91.92
2023-05-14T04:42:26.225Z,92.12
2023-05-14T04:44:53.548Z,91.91
2023-05-14T04:47:20.386Z,92.15
2023-05-14T04:49:48.437Z,92.46
2023-05-14T04:52:15.417Z,92.47
2023-05-14T04:54:42.604Z,91.44
2023-05-14T04:57:09.688Z,91.58
2023-05-14T04:59:36.427Z,91.55
2023-05-14T05:02:03.420Z,91.55
2023-05-14T05:04:31.093Z,91.53
2023-05-14T05:06:57.988Z,91.48
2023-05-14T05:09:25.623Z,91.37
2023-05-14T05:11:54.140Z,91.30
2023-05-14T05:14:21.592Z,90.35
2023-05-14T05:16:50.150Z,90.52
2023-05-14T05:19:17.000Z,90.69
2023-05-14T05:21:45.231Z,91.14
2023-05-14T05:24:12.017Z,91.02
2023-05-14T05:26:39.557Z,91.31
2023-05-14T05:29:07.074Z,90.24
2023-05-14T05:31:34.301Z,89.68
2023-05-14T05:34:02.839Z,90.14
2023-05-14T05:36:30.060Z,90.38
2023-05-14T05:38:57.598Z,90.39
2023-05-14T05:41:25.111Z,90.64
2023-05-14T05:43:51.994Z,90.46
2023-05-14T05:46:19.577Z,90.56
2023-05-14T05:48:46.541Z,90.72
2023-05-14T05:51:13.567Z,90.89
2023-05-14T05:53:40.597Z,90.83
2023-05-14T05:56:07.606Z,90.55
2023-05-14T05:58:34.403Z,90.36
2023-05-14T06:01:01.315Z,90.37
2023-05-14T06:03:28.082Z,90.31
2023-05-14T06:05:55.178Z,90.39
2023-05-14T06:08:22.017Z,89.51
2023-05-14T06:10:48.857Z,89.52
2023-05-14T06:13:15.721Z,89.59
2023-05-14T06:15:42.589Z,90.23
2023-05-14T06:18:09.539Z,90.01
2023-05-14T06:20:36.397Z,90.13
2023-05-14T06:23:03.574Z,90.42
2023-05-14T06:25:30.313Z,90.14
2023-05-14T06:27:57.194Z,90.34
2023-05-14T06:30:27.851Z,90.54
2023-05-14T06:32:56.419Z,90.74
2023-05-14T06:35:23.932Z,90.92
2023-05-14T06:37:51.110Z,91.23
2023-05-14T06:40:18.520Z,90.83
2023-05-14T06:42:45.380Z,90.82
2023-05-14T06:45:12.573Z,91.09
2023-05-14T06:47:39.582Z,91.56
2023-05-14T06:50:07.167Z,91.43
2023-05-14T06:52:36.128Z,91.41
2023-05-14T06:55:02.947Z,91.51
2023-05-14T06:57:33.556Z,92.25
2023-05-14T07:00:03.744Z,92.50
2023-05-14T07:02:30.785Z,92.28
2023-05-14T07:04:59.693Z,92.19
2023-05-14T07:07:26.405Z,92.47
2023-05-14T07:09:54.156Z,92.42
2023-05-14T07:12:21.633Z,92.55
2023-05-14T07:14:48.572Z,93.16
2023-05-14T07:17:16.175Z,92.98
2023-05-14T07:19:44.613Z,93.52
2023-05-14T07:22:11.412Z,93.35
2023-05-14T07:24:38.377Z,93.65
2023-05-14T07:27:05.642Z,93.79
2023-05-14T07:29:32.355Z,94.13
2023-05-14T07:32:03.072Z,94.31
2023-05-14T07:34:29.776Z,94.75
2023-05-14T07:36:56.878Z,95.15
2023-05-14T07:39:23.529Z,94.89
2023-05-14T07:41:53.162Z,95.20
2023-05-14T07:44:20.040Z,95.24
2023-05-14T07:46:47.401Z,95.63
2023-05-14T07:49:14.343Z,95.73
2023-05-14T07:51:41.075Z,95.93
2023-05-14T07:54:08.553Z,95.84
2023-05-14T07:56:36.114Z,95.92
2023-05-14T07:59:02.892Z,95.51
2023-05-14T08:01:29.643Z,95.39
2023-05-14T08:04:01.330Z,95.44
2023-05-14T08:06:28.137Z,95.70
2023-05-14T08:08:55.009Z,95.92
2023-05-14T08:11:21.899Z,95.72
2023-05-14T08:13:49.628Z,96.13
2023-05-14T08:19:07.713Z,96.41
2023-05-14T08:22:00.173Z,96.23
2023-05-14T08:24:27.040Z,96.94
2023-05-14T08:26:53.935Z,96.87
2023-05-14T08:29:21.134Z,97.25
2023-05-14T08:31:49.557Z,97.48
2023-05-14T08:34:16.458Z,97.22
2023-05-14T08:36:46.616Z,97.38
2023-05-14T08:39:13.594Z,97.66
2023-05-14T08:41:40.685Z,97.64
2023-05-14T08:44:38.885Z,98.02
2023-05-14T08:47:07.203Z,97.87
2023-05-14T08:49:43.593Z,98.01
2023-05-14T08:52:36.176Z,97.97
2023-05-14T08:55:05.740Z,98.25
2023-05-14T08:57:33.850Z,98.13
2023-05-14T09:00:05.295Z,98.35
2023-05-14T09:02:59.891Z,98.49
2023-05-14T09:05:33.157Z,98.61
2023-05-14T09:08:01.624Z,98.37
2023-05-14T09:10:29.232Z,98.62
2023-05-14T09:12:56.499Z,98.27
2023-05-14T09:15:25.024Z,98.57
2023-05-14T09:17:57.204Z,98.19
2023-05-14T09:20:25.130Z,98.36
2023-05-14T09:22:55.442Z,98.27
2023-05-14T09:25:27.681Z,98.29
2023-05-14T09:27:58.686Z,99.31
2023-05-14T09:30:26.389Z,99.38
2023-05-14T09:32:54.848Z,99.62
2023-05-14T09:35:24.346Z,99.59
2023-05-14T09:37:55.102Z,99.98
2023-05-14T09:40:24.487Z,100.00
2023-05-14T09:42:51.852Z,100.00
2023-05-14T09:45:44.527Z,100.00
2023-05-14T09:48:11.791Z,99.96
2023-05-14T09:53:37.296Z,99.85
2023-05-14T09:56:04.168Z,100.00
2023-05-14T09:58:32.805Z,100.00
2023-05-14T10:01:02.034Z,100.00
2023-05-14T10:03:30.633Z,100.00
2023-05-14T10:06:04.196Z,100.00
2023-05-14T10:08:34.754Z,100.00
2023-05-14T10:11:08.618Z,100.00
2023-05-14T10:13:46.539Z,100.00
2023-05-14T10:16:28.708Z,100.00
2023-05-14T10:19:10.068Z,100.00
2023-05-14T10:21:40.248Z,100.00
2023-05-14T10:24:10.178Z,100.00
2023-05-14T10:26:39.287Z,100.00
2023-05-14T10:29:07.056Z,100.00
2023-05-14T10:31:47.343Z,100.00
2023-05-14T10:34:35.702Z,100.00
2023-05-14T10:37:10.204Z,100.00
2023-05-14T10:39:54.311Z,100.00
2023-05-14T10:42:27.641Z,100.00
2023-05-14T10:45:01.215Z,100.00
2023-05-14T10:47:32.355Z,100.00
2023-05-14T10:50:02.980Z,100.00
2023-05-14T10:52:30.518Z,100.00
2023-05-14T10:55:06.260Z,100.00
2023-05-14T10:57:35.013Z,100.00
2023-05-14T11:00:02.489Z,100.00
2023-05-14T11:02:32.713Z,100.00
2023-05-14T11:05:05.207Z,100.00
2023-05-14T11:07:36.411Z,100.00
2023-05-14T11:10:13.067Z,100.00
2023-05-14T11:12:43.332Z,100.00
2023-05-14T11:15:15.754Z,100.00
2023-05-14T11:20:37.752Z,100.00
2023-05-14T11:23:04.519Z,100.00
2023-05-14T11:25:31.410Z,100.00
2023-05-14T11:30:51.757Z,100.00
2023-05-14T11:33:20.645Z,100.00
2023-05-14T11:35:48.481Z,100.00
2023-05-14T11:38:19.813Z,100.00
2023-05-14T11:40:55.220Z,100.00
2023-05-14T11:43:26.319Z,100.00
2023-05-14T11:45:54.497Z,100.00
2023-05-14T11:48:23.250Z,100.00
2023-05-14T11:50:52.397Z,100.00
2023-05-14T11:53:20.217Z,100.00
2023-05-14T11:55:48.621Z,100.00
2023-05-14T11:58:15.460Z,100.00
2023-05-14T12:00:46.266Z,100.00
2023-05-14T12:03:38.244Z,100.00
2023-05-14T12:06:07.209Z,100.00
2023-05-14T12:08:34.072Z,100.00
2023-05-14T12:11:01.208Z,100.00
2023-05-14T12:13:35.227Z,100.00
2023-05-14T12:16:03.063Z,100.00
2023-05-14T12:18:32.391Z,100.00
2023-05-14T12:21:04.267Z,100.00
2023-05-14T12:23:32.271Z,100.00
2023-05-14T12:26:07.042Z,100.00
2023-05-14T12:28:38.023Z,100.00
2023-05-14T12:31:08.884Z,100.00
2023-05-14T12:33:36.808Z,100.00
2023-05-14T12:38:33.423Z,100.00
2023-05-14T12:41:00.288Z,100.00
2023-05-14T12:43:27.214Z,100.00
2023-05-14T12:45:53.959Z,100.00
2023-05-14T12:48:20.815Z,100.00
2023-05-14T12:50:47.564Z,100.00
2023-05-14T12:53:14.366Z,100.00
2023-05-14T12:55:41.077Z,100.00
2023-05-14T12:58:07.920Z,100.00
2023-05-14T13:00:34.658Z,100.00
2023-05-14T13:03:01.472Z,100.00
2023-05-14T13:05:28.248Z,100.00
2023-05-14T13:07:55.170Z,100.00
2023-05-14T13:10:21.970Z,100.00
2023-05-14T13:12:48.779Z,100.00
2023-05-14T13:15:15.580Z,100.00
2023-05-14T13:17:42.482Z,100.00
2023-05-14T13:20:09.899Z,100.00
2023-05-14T13:22:36.664Z,100.00
2023-05-14T13:25:03.648Z,100.00
2023-05-14T13:27:30.466Z,100.00
2023-05-14T13:29:58.513Z,100.00
2023-05-14T13:32:26.043Z,100.00
2023-05-14T13:34:52.845Z,100.00
2023-05-14T13:37:20.090Z,100.00
2023-05-14T13:39:46.940Z,100.00
2023-05-14T13:42:13.709Z,100.00
2023-05-14T13:44:40.520Z,100.00
2023-05-14T13:47:07.478Z,100.00
2023-05-14T13:49:34.344Z,100.00
2023-05-14T13:52:01.051Z,100.00
2023-05-14T13:54:28.614Z,100.00
2023-05-14T13:56:55.512Z,100.00
2023-05-14T13:59:22.372Z,100.00
2023-05-14T14:01:49.608Z,100.00
2023-05-14T14:04:16.464Z,100.00
2023-05-14T14:06:43.416Z,100.00
2023-05-14T14:09:10.123Z,100.00
2023-05-14T14:11:36.847Z,100.00
2023-05-14T14:14:03.667Z,100.00
2023-05-14T14:16:30.569Z,100.00
2023-05-14T14:18:57.464Z,100.00
2023-05-14T14:21:24.362Z,100.00
2023-05-14T14:23:51.186Z,100.00
2023-05-14T14:26:18.054Z,100.00
2023-05-14T14:28:45.215Z,100.00
2023-05-14T14:31:12.066Z,100.00
2023-05-14T14:33:39.395Z,100.00
2023-05-14T14:36:07.161Z,100.00
2023-05-14T14:38:34.016Z,100.00
2023-05-14T14:41:01.095Z,100.00
2023-05-14T14:43:27.811Z,100.00
2023-05-14T14:45:55.125Z,100.00
2023-05-14T14:48:23.172Z,100.00
2023-05-14T14:50:50.317Z,100.00
2023-05-14T14:53:17.085Z,100.00
2023-05-14T14:55:44.125Z,100.00
2023-05-14T14:58:11.131Z,100.00
2023-05-14T15:00:39.038Z,100.00
2023-05-14T15:03:06.917Z,100.00
2023-05-14T15:05:33.764Z,100.00
2023-05-14T15:08:00.537Z,100.00
2023-05-14T15:10:32.078Z,100.00
2023-05-14T15:13:00.269Z,100.00
2023-05-14T15:15:27.079Z,100.00
2023-05-14T15:17:54.028Z,100.00
2023-05-14T15:20:21.341Z,100.00
2023-05-14T15:22:48.213Z,100.00
2023-05-14T15:25:15.051Z,100.00
2023-05-14T15:27:41.828Z,100.00
2023-05-14T15:30:09.098Z,100.00
2023-05-14T15:32:36.093Z,100.00
2023-05-14T15:35:03.115Z,100.00
2023-05-14T15:37:37.892Z,100.00
2023-05-14T15:40:05.596Z,100.00
2023-05-14T15:42:32.438Z,100.00
2023-05-14T15:44:59.844Z,100.00
2023-05-14T15:47:26.638Z,100.00
2023-05-14T15:49:53.530Z,100.00
2023-05-14T15:52:20.385Z,100.00
2023-05-14T15:54:48.627Z,100.00
2023-05-14T15:57:17.896Z,100.00
2023-05-14T15:59:47.048Z,100.00
2023-05-14T16:02:15.156Z,100.00
2023-05-14T16:04:42.079Z,100.00
2023-05-14T16:07:13.605Z,100.00
2023-05-14T16:09:40.527Z,100.00
2023-05-14T16:12:08.344Z,100.00
2023-05-14T16:14:35.834Z,100.00
2023-05-14T16:17:04.380Z,100.00
2023-05-14T16:19:31.724Z,100.00
2023-05-14T16:21:59.397Z,100.00
2023-05-14T16:24:26.248Z,100.00
2023-05-14T16:26:53.178Z,100.00
2023-05-14T16:29:20.209Z,100.00
2023-05-14T16:31:46.920Z,100.00
2023-05-14T16:34:13.781Z,100.00
2023-05-14T16:39:32.403Z,100.00
2023-05-14T16:41:59.187Z,100.00
2023-05-14T16:44:27.715Z,100.00
2023-05-14T16:46:56.442Z,100.00
2023-05-14T16:49:23.336Z,100.00
2023-05-14T16:51:50.303Z,100.00
2023-05-14T16:54:20.794Z,100.00
2023-05-14T16:56:47.600Z,100.00
2023-05-14T16:59:16.176Z,100.00
2023-05-14T17:01:44.085Z,100.00
2023-05-14T17:04:11.040Z,100.00
2023-05-14T17:06:41.854Z,100.00
2023-05-14T17:09:08.591Z,100.00
2023-05-14T17:11:37.756Z,100.00
2023-05-14T17:14:04.663Z,100.00
2023-05-14T17:16:31.399Z,100.00
2023-05-14T17:18:59.047Z,100.00
2023-05-14T17:21:25.908Z,100.00
2023-05-14T17:23:52.920Z,100.00
2023-05-14T17:26:23.349Z,100.00
2023-05-14T17:28:51.741Z,100.00
2023-05-14T17:31:19.357Z,100.00
2023-05-14T17:33:46.752Z,100.00
2023-05-14T17:36:13.950Z,100.00
2023-05-14T17:38:40.749Z,100.00
2023-05-14T17:41:13.407Z,100.00
2023-05-14T17:43:40.297Z,100.00
2023-05-14T17:46:08.730Z,100.00
2023-05-14T17:48:38.755Z,100.00
2023-05-14T17:51:08.871Z,100.00
2023-05-14T17:53:35.916Z,100.00
2023-05-14T17:56:03.021Z,100.00
2023-05-14T17:58:30.406Z,100.00
2023-05-14T18:00:58.264Z,100.00
2023-05-14T18:06:16.458Z,100.00
2023-05-14T18:08:43.192Z,100.00
2023-05-14T18:11:10.955Z,100.00
2023-05-14T18:13:38.675Z,100.00
2023-05-14T18:16:05.851Z,100.00
2023-05-14T18:18:32.599Z,100.00
2023-05-14T18:21:00.427Z,100.00
2023-05-14T18:23:27.808Z,100.00
2023-05-14T18:25:54.791Z,100.00
2023-05-14T18:28:22.703Z,100.00
2023-05-14T18:30:49.869Z,100.00
2023-05-14T18:33:18.453Z,100.00
2023-05-14T18:35:46.229Z,100.00
2023-05-14T18:38:13.037Z,100.00
2023-05-14T18:40:40.985Z,100.00
2023-05-14T18:43:08.298Z,100.00
2023-05-14T18:45:37.360Z,100.00
2023-05-14T18:48:04.854Z,100.00
2023-05-14T18:50:31.833Z,100.00
2023-05-14T18:52:59.692Z,100.00
2023-05-14T18:55:27.121Z,100.00
2023-05-14T18:57:54.684Z,100.00
2023-05-14T19:00:23.546Z,100.00
2023-05-14T19:02:52.427Z,100.00
2023-05-14T19:05:44.331Z,100.00
2023-05-14T19:08:11.436Z,100.00
2023-05-14T19:10:40.372Z,100.00
2023-05-14T19:13:10.870Z,100.00
2023-05-14T19:15:38.283Z,100.00
2023-05-14T19:18:05.465Z,100.00
2023-05-14T19:20:32.178Z,100.00
2023-05-14T19:22:59.292Z,100.00
2023-05-14T19:25:26.856Z,100.00
2023-05-14T19:27:53.929Z,100.00
2023-05-14T19:30:21.552Z,100.00
2023-05-14T19:32:48.616Z,100.00
2023-05-14T19:35:15.929Z,100.00
2023-05-14T19:37:43.165Z,100.00
2023-05-14T19:40:10.426Z,100.00
2023-05-14T19:42:39.468Z,100.00
2023-05-14T19:45:06.849Z,100.00
2023-05-14T19:47:58.563Z,100.00
2023-05-14T19:50:27.975Z,100.00
2023-05-14T19:52:54.843Z,100.00
2023-05-14T19:55:22.199Z,100.00
2023-05-14T19:57:49.407Z,100.00
2023-05-14T20:00:17.207Z,100.00
2023-05-14T20:02:46.129Z,100.00
2023-05-14T20:05:13.089Z,100.00
2023-05-14T20:07:41.442Z,100.00
2023-05-14T20:10:10.832Z,100.00
2023-05-14T20:12:37.771Z,100.00
2023-05-14T20:15:06.312Z,100.00
2023-05-14T20:17:37.497Z,100.00
2023-05-14T20:20:31.882Z,100.00
2023-05-14T20:23:03.959Z,100.00
2023-05-14T20:25:31.118Z,100.00
2023-05-14T20:28:02.374Z,100.00
2023-05-14T20:30:54.436Z,100.00
2023-05-14T20:33:21.380Z,100.00
2023-05-14T20:35:48.132Z,100.00
2023-05-14T20:38:16.417Z,100.00
2023-05-14T20:40:43.206Z,100.00
2023-05-14T20:43:11.384Z,100.00
2023-05-14T20:45:38.926Z,100.00
2023-05-14T20:48:06.294Z,100.00
2023-05-14T20:51:00.479Z,100.00
2023-05-14T20:53:27.301Z,100.00
2023-05-14T20:55:54.073Z,100.00
2023-05-14T20:58:22.531Z,100.00
2023-05-14T21:00:49.222Z,100.00
2023-05-14T21:03:18.081Z,100.00
2023-05-14T21:05:44.986Z,100.00
2023-05-14T21:08:11.861Z,100.00
2023-05-14T21:10:39.411Z,100.00
2023-05-14T21:13:06.570Z,100.00
2023-05-14T21:15:33.474Z,100.00
2023-05-14T21:20:53.353Z,100.00
2023-05-14T21:23:20.847Z,100.00
2023-05-14T21:25:48.708Z,100.00
2023-05-14T21:28:18.942Z,100.00
2023-05-14T21:30:45.764Z,100.00
2023-05-14T21:33:13.416Z,100.00
2023-05-14T21:35:40.261Z,100.00
2023-05-14T21:38:09.531Z,100.00
2023-05-14T21:40:36.383Z,100.00
2023-05-14T21:43:04.174Z,100.00
2023-05-14T21:45:32.510Z,100.00
2023-05-14T21:47:59.902Z,100.00
2023-05-14T21:50:27.093Z,100.00
2023-05-14T21:52:53.982Z,100.00
2023-05-14T21:55:24.042Z,100.00
2023-05-14T21:57:51.652Z,100.00
2023-05-14T22:00:19.218Z,100.00
2023-05-14T22:02:46.090Z,100.00
2023-05-14T22:05:13.920Z,100.00
2023-05-14T22:08:06.416Z,100.00
2023-05-14T22:10:35.188Z,100.00
2023-05-14T22:16:09.292Z,100.00
2023-05-14T22:18:40.931Z,100.00
2023-05-14T22:21:07.967Z,100.00
2023-05-14T22:23:34.734Z,100.00
2023-05-14T22:26:05.327Z,100.00
2023-05-14T22:28:32.073Z,100.00
2023-05-14T22:31:00.897Z,100.00
2023-05-14T22:33:28.514Z,100.00
2023-05-14T22:35:55.882Z,100.00
2023-05-14T22:38:22.705Z,100.00
2023-05-14T22:40:50.936Z,100.00
2023-05-14T22:43:17.768Z,100.00
2023-05-14T22:46:09.782Z,100.00
2023-05-14T22:48:37.997Z,100.00
2023-05-14T22:51:06.439Z,100.00
2023-05-14T22:53:34.225Z,100.00
2023-05-14T22:56:04.485Z,100.00
2023-05-14T22:58:31.275Z,100.00
2023-05-14T23:00:58.201Z,100.00
2023-05-14T23:03:29.437Z,100.00
2023-05-14T23:05:56.382Z,100.00
2023-05-14T23:08:24.115Z,100.00
2023-05-14T23:10:51.469Z,100.00
2023-05-14T23:13:18.431Z,100.00
2023-05-14T23:15:45.964Z,100.00
2023-05-14T23:18:12.923Z,100.00
2023-05-14T23:20:39.766Z,100.00
2023-05-14T23:23:06.540Z,100.00
2023-05-14T23:25:35.165Z,100.00
2023-05-14T23:28:03.962Z,100.00
2023-05-14T23:30:30.785Z,100.00
2023-05-14T23:32:58.490Z,100.00
2023-05-14T23:35:25.463Z,100.00
2023-05-14T23:37:54.507Z,100.00
2023-05-14T23:40:21.335Z,100.00
2023-05-14T23:42:48.196Z,100.00
2023-05-14T23:45:15.459Z,100.00
2023-05-14T23:47:42.317Z,100.00
2023-05-14T23:50:10.477Z,100.00
2023-05-14T23:52:37.232Z,100.00
2023-05-14T23:55:05.298Z,100.00
2023-05-14T23:57:32.151Z,100.00
2023-05-14T23:59:59.133Z,100.00
